Time;durP1;ratioP1;P1;durP2;ratioP2;P2;SDS_P1;SDS_P2;PMS_P1;PMS_P2;Temp;Humidity;BMP_temperature;BMP_pressure;BME280_temperature;BME280_humidity;BME280_pressure;Samples;Min_cycle;Max_cycle;Signal;HPM_P1;HPM_P2
2024/01/20 00:00:11;;;;;;;67.88;23.20;;;-1.60;99.90;;;;;;5043473;28;20025;-73
2024/01/20 00:02:37;;;;;;;72.10;27.38;;;-1.60;99.90;;;;;;5045971;28;20041;-72
2024/01/20 00:05:02;;;;;;;75.15;27.75;;;-1.70;99.90;;;;;;5036740;28;20102;-73
2024/01/20 00:07:28;;;;;;;68.20;25.75;;;-1.70;99.90;;;;;;5054437;28;20053;-73
2024/01/20 00:09:53;;;;;;;72.70;24.70;;;-1.70;99.90;;;;;;5058582;28;20480;-73
2024/01/20 00:12:19;;;;;;;64.78;24.92;;;-1.70;99.90;;;;;;5057149;28;20086;-73
2024/01/20 00:14:44;;;;;;;77.05;25.85;;;-1.70;99.90;;;;;;5062949;28;20038;-72
2024/01/20 00:17:10;;;;;;;69.25;26.63;;;-1.70;99.90;;;;;;5054882;28;20028;-73
2024/01/20 00:19:36;;;;;;;64.70;22.98;;;-1.70;99.90;;;;;;5050962;28;20020;-72
2024/01/20 00:22:01;;;;;;;67.85;25.77;;;-1.70;99.90;;;;;;5045574;28;20112;-73
2024/01/20 00:24:27;;;;;;;64.75;23.98;;;-1.70;99.90;;;;;;5057152;28;20028;-72
2024/01/20 00:26:52;;;;;;;71.30;26.38;;;-1.70;99.90;;;;;;5052958;28;20113;-72
2024/01/20 00:29:18;;;;;;;78.35;25.80;;;-1.60;99.90;;;;;;5036625;28;20033;-73
2024/01/20 00:31:43;;;;;;;73.50;26.55;;;-1.60;99.90;;;;;;5041386;28;20026;-74
2024/01/20 00:34:09;;;;;;;67.43;24.17;;;-1.60;99.90;;;;;;5045684;28;20037;-73
2024/01/20 00:36:35;;;;;;;77.25;26.63;;;-1.60;99.90;;;;;;5042533;28;20021;-72
2024/01/20 00:39:00;;;;;;;76.50;26.17;;;-1.60;99.90;;;;;;5041980;28;20057;-74
2024/01/20 00:41:26;;;;;;;72.57;26.02;;;-1.60;99.90;;;;;;5046853;28;20111;-73
2024/01/20 00:43:52;;;;;;;70.70;26.42;;;-1.50;99.90;;;;;;5046253;28;20067;-73
2024/01/20 00:46:17;;;;;;;63.85;24.70;;;-1.50;99.90;;;;;;5055409;28;20025;-72
2024/01/20 00:48:43;;;;;;;77.82;26.95;;;-1.40;99.90;;;;;;5054345;28;20032;-74
2024/01/20 00:51:09;;;;;;;75.25;27.00;;;-1.40;99.90;;;;;;5038516;28;20029;-73
2024/01/20 00:53:34;;;;;;;75.13;25.98;;;-1.40;99.90;;;;;;5051099;28;20477;-73
2024/01/20 00:56:00;;;;;;;72.78;25.48;;;-1.30;99.90;;;;;;5054171;28;20029;-73
2024/01/20 00:58:26;;;;;;;79.65;26.77;;;-1.30;99.90;;;;;;5053491;28;20021;-72
2024/01/20 01:00:51;;;;;;;70.10;24.63;;;-1.20;99.90;;;;;;5046754;28;20468;-72
2024/01/20 01:03:17;;;;;;;78.32;26.42;;;-1.20;99.90;;;;;;5057469;28;20031;-73
2024/01/20 01:05:42;;;;;;;78.53;26.35;;;-1.20;99.90;;;;;;5062859;28;20044;-72
2024/01/20 01:08:08;;;;;;;77.38;24.77;;;-1.10;99.90;;;;;;5060613;28;20028;-73
2024/01/20 01:10:34;;;;;;;74.95;26.02;;;-1.10;99.90;;;;;;5059890;28;20018;-73
2024/01/20 01:13:00;;;;;;;78.18;26.95;;;-1.00;99.90;;;;;;5047049;28;20029;-72
2024/01/20 01:15:25;;;;;;;67.50;24.85;;;-1.00;99.90;;;;;;5044921;28;20030;-73
2024/01/20 01:17:51;;;;;;;71.80;25.55;;;-1.00;99.90;;;;;;5054787;28;20469;-72
2024/01/20 01:20:16;;;;;;;66.80;24.50;;;-1.00;99.90;;;;;;5056966;28;20051;-73
2024/01/20 01:22:42;;;;;;;72.32;25.08;;;-1.00;99.90;;;;;;5042355;28;20028;-72
2024/01/20 01:25:09;;;;;;;66.30;25.73;;;-1.00;99.90;;;;;;5054314;28;20025;-73
2024/01/20 01:27:35;;;;;;;67.95;23.70;;;-1.00;99.90;;;;;;5058765;28;20033;-73
2024/01/20 01:30:00;;;;;;;62.03;23.80;;;-1.00;99.90;;;;;;5041661;28;20029;-73
2024/01/20 01:32:26;;;;;;;72.65;23.83;;;-1.10;99.90;;;;;;5052184;28;20029;-72
2024/01/20 01:34:52;;;;;;;73.80;25.42;;;-1.20;99.90;;;;;;5052913;28;20037;-72
2024/01/20 01:37:17;;;;;;;71.97;25.63;;;-1.20;99.90;;;;;;5063265;28;20025;-72
2024/01/20 01:39:43;;;;;;;77.88;26.45;;;-1.20;99.90;;;;;;5050834;28;20052;-72
2024/01/20 01:42:09;;;;;;;72.90;24.20;;;-1.30;99.90;;;;;;5045940;28;20542;-72
2024/01/20 01:44:35;;;;;;;73.05;25.63;;;-1.30;99.90;;;;;;5052858;28;20130;-73
2024/01/20 01:47:00;;;;;;;67.93;24.60;;;-1.30;99.90;;;;;;5043918;28;20121;-73
2024/01/20 01:49:26;;;;;;;66.43;23.30;;;-1.40;99.90;;;;;;5055356;28;20154;-73
2024/01/20 01:51:53;;;;;;;61.53;22.95;;;-1.40;99.90;;;;;;5046415;28;20029;-73
2024/01/20 01:54:19;;;;;;;67.70;23.33;;;-1.40;99.90;;;;;;5042845;28;20396;-72
2024/01/20 01:56:47;;;;;;;64.43;23.77;;;-1.40;99.90;;;;;;5047424;28;20103;-71
2024/01/20 01:59:14;;;;;;;67.07;24.15;;;-1.40;99.90;;;;;;5061000;28;20030;-73
2024/01/20 02:01:40;;;;;;;60.47;22.77;;;-1.40;99.90;;;;;;5057100;28;20032;-73
2024/01/20 02:04:06;;;;;;;63.33;21.45;;;-1.40;99.90;;;;;;5041457;28;20020;-73
2024/01/20 02:06:32;;;;;;;67.82;21.60;;;-1.40;99.90;;;;;;5047518;28;20025;-73
2024/01/20 02:08:59;;;;;;;65.20;23.98;;;-1.40;99.90;;;;;;5043918;28;20390;-73
2024/01/20 02:11:25;;;;;;;72.85;23.30;;;-1.40;99.90;;;;;;5037101;28;20030;-73
2024/01/20 02:13:51;;;;;;;67.65;23.95;;;-1.40;99.90;;;;;;5048780;28;20083;-73
2024/01/20 02:16:17;;;;;;;64.32;22.80;;;-1.40;99.90;;;;;;5045931;28;20037;-73
2024/01/20 02:18:42;;;;;;;69.45;23.35;;;-1.40;99.90;;;;;;5046983;28;20044;-73
2024/01/20 02:21:08;;;;;;;62.22;22.08;;;-1.40;99.90;;;;;;5036631;28;20501;-73
2024/01/20 02:23:38;;;;;;;69.10;21.88;;;-1.40;99.90;;;;;;5045743;28;20482;-73
2024/01/20 02:26:05;;;;;;;66.78;22.92;;;-1.40;99.90;;;;;;5041299;28;20044;-74
2024/01/20 02:28:30;;;;;;;59.63;20.83;;;-1.40;99.90;;;;;;5038973;28;20079;-72
2024/01/20 02:30:56;;;;;;;66.30;24.00;;;-1.40;99.90;;;;;;5044999;28;20030;-73
2024/01/20 02:33:22;;;;;;;64.40;22.17;;;-1.50;99.90;;;;;;5051822;28;20055;-73
2024/01/20 02:35:47;;;;;;;70.40;22.90;;;-1.50;99.90;;;;;;5044249;28;21860;-74
2024/01/20 02:38:13;;;;;;;64.90;21.73;;;-1.50;99.90;;;;;;5054098;28;20025;-73
2024/01/20 02:40:38;;;;;;;52.78;20.17;;;-1.50;99.90;;;;;;5041209;28;20018;-74
2024/01/20 02:43:04;;;;;;;56.13;19.52;;;-1.50;99.90;;;;;;5045855;28;20508;-74
2024/01/20 02:45:29;;;;;;;64.40;20.63;;;-1.50;99.90;;;;;;5041086;28;20037;-73
2024/01/20 02:47:56;;;;;;;60.20;21.55;;;-1.50;99.90;;;;;;5034705;28;20025;-73
2024/01/20 02:50:22;;;;;;;62.40;20.10;;;-1.50;99.90;;;;;;5044245;28;20018;-73
2024/01/20 02:52:47;;;;;;;60.78;19.88;;;-1.50;99.90;;;;;;5046147;28;20484;-73
2024/01/20 02:55:13;;;;;;;55.95;20.85;;;-1.50;99.90;;;;;;5040940;28;20032;-73
2024/01/20 02:57:38;;;;;;;68.97;21.13;;;-1.60;99.90;;;;;;5043972;28;21099;-73
2024/01/20 03:00:07;;;;;;;63.22;21.67;;;-1.50;99.90;;;;;;5049035;28;20504;-73
2024/01/20 03:02:33;;;;;;;63.05;20.25;;;-1.50;99.90;;;;;;5054612;28;20109;-73
2024/01/20 03:05:00;;;;;;;60.85;21.55;;;-1.60;99.90;;;;;;5045774;28;20477;-73
2024/01/20 03:07:25;;;;;;;54.55;20.02;;;-1.60;99.90;;;;;;5048507;28;20028;-73
2024/01/20 03:09:51;;;;;;;63.25;20.27;;;-1.60;99.90;;;;;;5043486;28;20096;-72
2024/01/20 03:12:17;;;;;;;61.88;21.50;;;-1.60;99.90;;;;;;5046973;28;20530;-73
2024/01/20 03:14:42;;;;;;;68.75;21.10;;;-1.60;99.90;;;;;;5051198;28;20037;-73
2024/01/20 03:17:08;;;;;;;67.15;22.08;;;-1.60;99.90;;;;;;5043012;28;20397;-73
2024/01/20 03:19:33;;;;;;;68.50;22.45;;;-1.60;99.90;;;;;;5050850;28;20043;-73
2024/01/20 03:21:59;;;;;;;66.53;21.77;;;-1.60;99.90;;;;;;5044032;28;20029;-73
2024/01/20 03:24:25;;;;;;;63.67;20.55;;;-1.60;99.90;;;;;;5039085;28;20107;-73
2024/01/20 03:26:50;;;;;;;56.15;20.27;;;-1.60;99.90;;;;;;5039915;28;20021;-73
2024/01/20 03:29:16;;;;;;;63.38;21.05;;;-1.60;99.90;;;;;;5049384;28;20021;-73
2024/01/20 03:31:42;;;;;;;60.88;19.38;;;-1.60;99.90;;;;;;5046082;28;20060;-73
2024/01/20 03:34:09;;;;;;;69.70;22.10;;;-1.70;99.90;;;;;;5038921;28;20044;-73
2024/01/20 03:36:34;;;;;;;59.53;19.85;;;-1.70;99.90;;;;;;5046129;28;20549;-73
2024/01/20 03:39:00;;;;;;;56.83;20.95;;;-1.70;99.90;;;;;;5048409;28;20068;-73
2024/01/20 03:41:25;;;;;;;57.38;20.02;;;-1.70;99.90;;;;;;5032851;28;20504;-73
2024/01/20 03:43:51;;;;;;;62.97;20.17;;;-1.70;99.90;;;;;;5040734;28;20048;-73
2024/01/20 03:46:18;;;;;;;54.03;19.02;;;-1.70;99.90;;;;;;5043501;28;20060;-72
2024/01/20 03:48:44;;;;;;;60.30;20.77;;;-1.70;99.90;;;;;;5032848;28;20022;-72
2024/01/20 03:51:09;;;;;;;63.25;20.50;;;-1.70;99.90;;;;;;5043576;28;20105;-72
2024/01/20 03:53:35;;;;;;;62.72;20.80;;;-1.70;99.90;;;;;;5029826;28;20422;-72
2024/01/20 03:56:01;;;;;;;56.88;20.38;;;-1.70;99.90;;;;;;5039759;28;20534;-72
2024/01/20 03:58:27;;;;;;;58.85;20.00;;;-1.70;99.90;;;;;;5048558;28;20021;-72
2024/01/20 04:00:52;;;;;;;63.65;20.98;;;-1.70;99.90;;;;;;5044644;28;20032;-72
2024/01/20 04:03:18;;;;;;;53.42;19.52;;;-1.70;99.90;;;;;;5043538;28;20029;-72
2024/01/20 04:05:44;;;;;;;66.47;21.55;;;-1.70;99.90;;;;;;5038544;28;20100;-72
2024/01/20 04:08:09;;;;;;;60.85;21.05;;;-1.70;99.90;;;;;;5038462;28;20127;-72
2024/01/20 04:10:35;;;;;;;54.47;19.33;;;-1.70;99.90;;;;;;5039025;28;20456;-72
2024/01/20 04:13:01;;;;;;;55.65;21.63;;;-1.70;99.90;;;;;;5041108;28;20041;-73
2024/01/20 04:15:27;;;;;;;60.75;19.98;;;-1.70;99.90;;;;;;5044327;28;20530;-73
2024/01/20 04:17:52;;;;;;;52.95;19.35;;;-1.70;99.90;;;;;;5036470;28;20065;-73
2024/01/20 04:20:18;;;;;;;54.35;19.75;;;-1.70;99.90;;;;;;5044809;28;20052;-73
2024/01/20 04:22:44;;;;;;;61.83;21.23;;;-1.70;99.90;;;;;;5031757;28;20030;-73
2024/01/20 04:25:10;;;;;;;56.60;19.63;;;-1.70;99.90;;;;;;5054953;28;20094;-73
2024/01/20 04:27:40;;;;;;;56.97;21.02;;;-1.80;99.90;;;;;;5052104;28;20477;-73
2024/01/20 04:30:10;;;;;;;59.33;20.13;;;-1.80;99.90;;;;;;5047653;28;20039;-72
2024/01/20 04:32:36;;;;;;;63.67;20.13;;;-1.70;99.90;;;;;;5048008;28;20032;-73
2024/01/20 04:35:03;;;;;;;64.25;20.33;;;-1.70;99.90;;;;;;5054126;28;20043;-73
2024/01/20 04:37:28;;;;;;;56.00;20.33;;;-1.70;99.90;;;;;;5035986;28;20053;-73
2024/01/20 04:39:56;;;;;;;54.30;20.08;;;-1.70;99.90;;;;;;5036048;28;20456;-73
2024/01/20 04:42:21;;;;;;;59.50;20.08;;;-1.70;99.90;;;;;;5044884;28;20029;-73
2024/01/20 04:44:47;;;;;;;54.58;17.98;;;-1.70;99.90;;;;;;5054741;28;20067;-73
2024/01/20 04:47:12;;;;;;;54.40;17.52;;;-1.70;99.90;;;;;;5046394;28;20034;-73
2024/01/20 04:49:38;;;;;;;61.05;20.95;;;-1.70;99.90;;;;;;5049864;28;20026;-73
2024/01/20 04:52:04;;;;;;;59.78;21.17;;;-1.70;99.90;;;;;;5038938;28;20514;-72
2024/01/20 04:54:30;;;;;;;52.67;18.38;;;-1.70;99.90;;;;;;5057921;28;20055;-73
2024/01/20 04:56:57;;;;;;;54.60;20.63;;;-1.70;99.90;;;;;;5069185;28;20464;-73
2024/01/20 04:59:23;;;;;;;54.65;18.95;;;-1.70;99.90;;;;;;5064487;28;20032;-73
2024/01/20 05:01:48;;;;;;;59.53;21.77;;;-1.70;99.90;;;;;;5052522;28;20096;-73
2024/01/20 05:04:14;;;;;;;57.35;19.08;;;-1.70;99.90;;;;;;5054947;28;20075;-73
2024/01/20 05:06:40;;;;;;;54.03;18.92;;;-1.70;99.90;;;;;;5069528;28;20033;-73
2024/01/20 05:09:06;;;;;;;55.28;19.67;;;-1.60;99.90;;;;;;5071577;28;20032;-73
2024/01/20 05:11:31;;;;;;;56.10;19.52;;;-1.70;99.90;;;;;;5066013;28;20087;-73
2024/01/20 05:13:57;;;;;;;51.78;18.55;;;-1.60;99.90;;;;;;5040195;28;20493;-72
2024/01/20 05:16:22;;;;;;;52.67;19.88;;;-1.60;99.90;;;;;;5048062;28;20175;-73
2024/01/20 05:18:48;;;;;;;57.65;19.77;;;-1.60;99.90;;;;;;5065270;28;20032;-72
2024/01/20 05:21:14;;;;;;;49.95;17.92;;;-1.70;99.90;;;;;;5048374;28;20020;-72
2024/01/20 05:23:40;;;;;;;62.70;19.50;;;-1.70;99.90;;;;;;5048351;28;20512;-73
2024/01/20 05:26:06;;;;;;;54.45;19.30;;;-1.70;99.90;;;;;;5045749;28;20028;-73
2024/01/20 05:28:31;;;;;;;58.58;19.00;;;-1.70;99.90;;;;;;5048569;28;20116;-73
2024/01/20 05:30:57;;;;;;;57.58;19.83;;;-1.70;99.90;;;;;;5034325;28;20025;-73
2024/01/20 05:33:23;;;;;;;48.78;17.88;;;-1.70;99.90;;;;;;5040526;28;20037;-73
2024/01/20 05:35:48;;;;;;;57.00;18.80;;;-1.70;99.90;;;;;;5045820;28;20055;-73
2024/01/20 05:38:14;;;;;;;47.00;16.58;;;-1.70;99.90;;;;;;5042810;28;20037;-73
2024/01/20 05:40:40;;;;;;;60.92;19.88;;;-1.70;99.90;;;;;;5038385;28;20029;-73
2024/01/20 05:43:06;;;;;;;57.13;19.00;;;-1.70;99.90;;;;;;5059001;28;20021;-73
2024/01/20 05:45:32;;;;;;;66.50;19.23;;;-1.70;99.90;;;;;;5046278;28;20131;-73
2024/01/20 05:47:57;;;;;;;57.05;19.48;;;-1.70;99.90;;;;;;5035780;28;20044;-73
2024/01/20 05:50:23;;;;;;;52.15;17.90;;;-1.70;99.90;;;;;;5058320;28;20032;-73
2024/01/20 05:52:50;;;;;;;47.38;18.55;;;-1.70;99.90;;;;;;5050817;28;20029;-73
2024/01/20 05:55:15;;;;;;;50.58;18.25;;;-1.70;99.90;;;;;;5047356;28;20052;-74
2024/01/20 05:57:42;;;;;;;53.72;19.65;;;-1.70;99.90;;;;;;5038552;28;20017;-73
2024/01/20 06:00:09;;;;;;;52.95;18.77;;;-1.60;99.90;;;;;;5042676;28;20035;-73
2024/01/20 06:02:36;;;;;;;59.88;21.13;;;-1.60;99.90;;;;;;5036392;28;20678;-73
2024/01/20 06:05:01;;;;;;;57.33;20.15;;;-1.60;99.90;;;;;;5044978;28;20052;-74
2024/01/20 06:07:27;;;;;;;51.38;18.33;;;-1.70;99.90;;;;;;5041590;28;20494;-73
2024/01/20 06:09:52;;;;;;;51.22;18.67;;;-1.60;99.90;;;;;;5042921;28;20033;-74
2024/01/20 06:12:18;;;;;;;49.25;17.52;;;-1.60;99.90;;;;;;5050487;28;20060;-74
2024/01/20 06:14:44;;;;;;;52.92;19.15;;;-1.60;99.90;;;;;;5052795;28;20145;-73
2024/01/20 06:17:09;;;;;;;50.33;18.10;;;-1.60;99.90;;;;;;5059311;28;20470;-73
2024/01/20 06:19:35;;;;;;;47.25;17.35;;;-1.60;99.90;;;;;;5056371;28;20069;-73
2024/01/20 06:22:00;;;;;;;57.45;19.50;;;-1.60;99.90;;;;;;5036814;28;20032;-74
2024/01/20 06:24:26;;;;;;;46.63;17.17;;;-1.60;99.90;;;;;;5037374;28;20022;-74
2024/01/20 06:26:51;;;;;;;51.22;19.45;;;-1.60;99.90;;;;;;5043782;28;20025;-73
2024/01/20 06:29:17;;;;;;;52.42;19.25;;;-1.50;99.90;;;;;;5049472;28;20340;-74
2024/01/20 06:31:43;;;;;;;51.88;19.90;;;-1.60;99.90;;;;;;5038664;28;20124;-73
2024/01/20 06:34:08;;;;;;;49.33;17.70;;;-1.60;99.90;;;;;;5051294;28;20473;-73
2024/01/20 06:36:34;;;;;;;52.40;18.45;;;-1.60;99.90;;;;;;5030657;28;20022;-73
2024/01/20 06:38:59;;;;;;;52.05;18.48;;;-1.60;99.90;;;;;;5044944;28;20127;-73
2024/01/20 06:41:25;;;;;;;47.72;17.80;;;-1.60;99.90;;;;;;5039577;28;20025;-74
2024/01/20 06:43:50;;;;;;;51.78;17.88;;;-1.60;99.90;;;;;;5038175;28;20048;-74
2024/01/20 06:46:16;;;;;;;59.20;19.77;;;-1.60;99.90;;;;;;5039870;28;20025;-74
2024/01/20 06:48:41;;;;;;;52.38;17.42;;;-1.60;99.90;;;;;;5045731;28;20021;-74
2024/01/20 06:51:14;;;;;;;58.78;19.27;;;-1.60;99.90;;;;;;5056901;28;20036;-74
2024/01/20 06:53:40;;;;;;;52.63;18.55;;;-1.60;99.90;;;;;;5055888;28;20041;-73
2024/01/20 06:56:06;;;;;;;52.15;17.88;;;-1.60;99.90;;;;;;5039571;28;20100;-75
2024/01/20 06:58:34;;;;;;;53.92;18.00;;;-1.60;99.90;;;;;;5046834;28;20029;-74
2024/01/20 07:00:59;;;;;;;47.90;17.65;;;-1.60;99.90;;;;;;5043306;28;20117;-74
2024/01/20 07:03:25;;;;;;;45.40;16.27;;;-1.60;99.90;;;;;;5029244;28;20812;-74
2024/01/20 07:05:51;;;;;;;49.22;17.42;;;-1.50;99.90;;;;;;5041484;28;20018;-74
2024/01/20 07:08:16;;;;;;;53.97;17.98;;;-1.50;99.90;;;;;;5043053;28;20024;-74
2024/01/20 07:10:42;;;;;;;48.58;16.77;;;-1.50;99.90;;;;;;5038505;28;20017;-73
2024/01/20 07:13:07;;;;;;;46.97;17.42;;;-1.50;99.90;;;;;;5046409;28;20064;-73
2024/01/20 07:15:33;;;;;;;49.08;17.13;;;-1.50;99.90;;;;;;5042938;28;20397;-73
2024/01/20 07:17:59;;;;;;;48.03;16.35;;;-1.50;99.90;;;;;;5049151;28;20021;-73
2024/01/20 07:20:25;;;;;;;48.88;17.65;;;-1.60;99.90;;;;;;5055470;28;20070;-73
2024/01/20 07:22:50;;;;;;;49.83;17.35;;;-1.60;99.90;;;;;;5043787;28;20526;-73
2024/01/20 07:25:17;;;;;;;54.83;18.50;;;-1.60;99.90;;;;;;5043371;28;20037;-74
2024/01/20 07:27:43;;;;;;;49.75;16.50;;;-1.60;99.90;;;;;;5043602;28;20021;-74
2024/01/20 07:30:09;;;;;;;51.85;17.48;;;-1.50;99.90;;;;;;5046755;28;20017;-73
2024/01/20 07:32:37;;;;;;;46.00;17.02;;;-1.50;99.90;;;;;;5039890;28;20028;-73
2024/01/20 07:35:03;;;;;;;47.15;15.65;;;-1.40;99.90;;;;;;5041137;28;20125;-73
2024/01/20 07:37:29;;;;;;;47.53;17.75;;;-1.40;99.90;;;;;;5046173;28;20108;-72
2024/01/20 07:39:54;;;;;;;52.55;16.45;;;-1.30;99.90;;;;;;5038177;28;20485;-73
2024/01/20 07:42:20;;;;;;;49.83;18.83;;;-1.30;99.90;;;;;;5057738;28;20017;-72
2024/01/20 07:44:45;;;;;;;43.50;17.27;;;-1.30;99.90;;;;;;5055640;28;20051;-72
2024/01/20 07:47:13;;;;;;;48.03;16.38;;;-1.30;99.90;;;;;;5062005;28;20104;-72
2024/01/20 07:49:38;;;;;;;51.15;19.27;;;-1.20;99.90;;;;;;5049446;28;20070;-72
2024/01/20 07:52:05;;;;;;;52.15;17.50;;;-1.10;99.90;;;;;;5063405;28;20029;-72
2024/01/20 07:54:30;;;;;;;50.70;17.13;;;-1.10;99.90;;;;;;5058203;28;20405;-72
2024/01/20 07:56:56;;;;;;;47.72;16.58;;;-1.10;99.90;;;;;;5062803;28;20033;-72
2024/01/20 07:59:21;;;;;;;50.83;18.98;;;-1.10;99.90;;;;;;5058382;28;20387;-72
2024/01/20 08:01:47;;;;;;;50.03;18.30;;;-1.20;99.90;;;;;;5046919;28;20083;-72
2024/01/20 08:04:13;;;;;;;53.85;18.63;;;-1.20;99.90;;;;;;5046583;28;20390;-72
2024/01/20 08:06:38;;;;;;;52.85;18.00;;;-1.20;99.90;;;;;;5040605;28;20021;-72
2024/01/20 08:09:04;;;;;;;46.85;18.52;;;-1.20;99.90;;;;;;5042388;28;20040;-72
2024/01/20 08:11:29;;;;;;;47.70;16.75;;;-1.10;99.90;;;;;;5056328;28;20064;-72
2024/01/20 08:13:55;;;;;;;50.92;18.08;;;-1.10;99.90;;;;;;5048518;28;20534;-73
2024/01/20 08:16:21;;;;;;;50.30;19.83;;;-1.00;99.90;;;;;;5044540;28;20055;-72
2024/01/20 08:18:46;;;;;;;52.97;18.85;;;-0.90;99.90;;;;;;5042464;28;20044;-72
2024/01/20 08:21:12;;;;;;;50.15;17.17;;;-0.90;99.90;;;;;;5040696;28;20048;-73
2024/01/20 08:23:37;;;;;;;47.65;16.17;;;-0.80;99.90;;;;;;5056308;28;20473;-72
2024/01/20 08:26:03;;;;;;;48.75;17.42;;;-0.80;99.90;;;;;;5041983;28;20025;-72
2024/01/20 08:28:30;;;;;;;49.15;19.63;;;-0.70;99.90;;;;;;5045128;28;20256;-73
2024/01/20 08:30:55;;;;;;;52.17;18.52;;;-0.70;99.90;;;;;;5037485;28;20029;-73
2024/01/20 08:33:22;;;;;;;46.83;17.45;;;-0.60;99.90;;;;;;5035695;28;20085;-73
2024/01/20 08:35:49;;;;;;;48.53;17.38;;;-0.60;99.90;;;;;;5047102;28;20465;-73
2024/01/20 08:38:15;;;;;;;51.15;19.10;;;-0.50;99.90;;;;;;5036768;28;20040;-73
2024/01/20 08:40:41;;;;;;;47.22;17.67;;;-0.40;99.90;;;;;;5041171;28;20393;-73
2024/01/20 08:43:07;;;;;;;50.00;17.48;;;-0.40;99.90;;;;;;5037743;28;20143;-73
2024/01/20 08:45:33;;;;;;;45.20;17.80;;;-0.30;99.90;;;;;;5045821;28;20048;-73
2024/01/20 08:47:58;;;;;;;46.40;20.00;;;-0.20;99.90;;;;;;5029539;28;20033;-72
2024/01/20 08:50:24;;;;;;;52.20;17.55;;;-0.20;99.90;;;;;;5041821;28;20082;-72
2024/01/20 08:52:50;;;;;;;52.63;18.38;;;-0.10;99.90;;;;;;5047171;28;20068;-73
2024/01/20 08:55:15;;;;;;;49.33;17.90;;;0.10;99.90;;;;;;5040677;28;20056;-72
2024/01/20 08:57:44;;;;;;;49.50;17.77;;;0.10;99.90;;;;;;5043651;28;20412;-72
2024/01/20 09:00:12;;;;;;;53.92;19.15;;;0.20;99.90;;;;;;5039733;28;20523;-74
2024/01/20 09:02:38;;;;;;;44.45;18.15;;;0.20;99.90;;;;;;5042809;28;20359;-73
2024/01/20 09:05:04;;;;;;;54.55;19.15;;;0.30;99.90;;;;;;5036883;28;20025;-73
2024/01/20 09:07:30;;;;;;;48.10;17.85;;;0.30;99.90;;;;;;5039109;28;20041;-74
2024/01/20 09:09:56;;;;;;;48.10;18.45;;;0.40;99.90;;;;;;5047596;28;20109;-74
2024/01/20 09:12:22;;;;;;;49.92;17.77;;;0.40;99.90;;;;;;5032722;28;20033;-74
2024/01/20 09:14:48;;;;;;;47.30;19.13;;;0.40;99.90;;;;;;5041228;28;20476;-74
2024/01/20 09:17:14;;;;;;;48.65;18.48;;;0.40;99.90;;;;;;5043632;28;20049;-74
2024/01/20 09:19:39;;;;;;;48.55;18.48;;;0.40;99.90;;;;;;5054063;28;20033;-74
2024/01/20 09:22:05;;;;;;;45.85;18.38;;;0.40;99.90;;;;;;5048818;28;20557;-75
2024/01/20 09:24:30;;;;;;;42.10;18.02;;;0.30;99.90;;;;;;5043381;28;20446;-74
2024/01/20 09:26:56;;;;;;;46.03;18.17;;;0.30;99.90;;;;;;5048476;28;20029;-75
2024/01/20 09:29:22;;;;;;;49.75;20.17;;;0.30;99.90;;;;;;5051576;28;20052;-76
2024/01/20 09:31:48;;;;;;;46.03;18.52;;;0.40;99.90;;;;;;5033936;28;20493;-76
2024/01/20 09:34:13;;;;;;;43.75;17.40;;;0.40;99.90;;;;;;5055004;28;20037;-75
2024/01/20 09:36:39;;;;;;;44.53;17.20;;;0.40;99.90;;;;;;5060348;28;20029;-75
2024/01/20 09:39:05;;;;;;;48.67;18.02;;;0.40;99.90;;;;;;5048628;28;20033;-75
2024/01/20 09:41:31;;;;;;;42.35;16.42;;;0.40;99.90;;;;;;5045468;28;20025;-74
2024/01/20 09:43:58;;;;;;;43.53;16.45;;;0.50;99.90;;;;;;5038854;28;20186;-75
2024/01/20 09:46:24;;;;;;;47.85;17.30;;;0.50;99.90;;;;;;5049604;28;20079;-74
2024/01/20 09:48:55;;;;;;;43.13;17.67;;;0.50;99.90;;;;;;5057593;28;20032;-75
2024/01/20 09:51:28;;;;;;;40.17;16.35;;;0.60;99.90;;;;;;5040344;28;20029;-75
2024/01/20 09:53:59;;;;;;;41.55;16.10;;;0.60;99.90;;;;;;5041023;28;20041;-75
2024/01/20 09:56:27;;;;;;;43.90;17.17;;;0.60;99.90;;;;;;5042819;28;20458;-74
2024/01/20 09:58:57;;;;;;;42.63;18.05;;;0.50;99.90;;;;;;5039011;28;20036;-74
2024/01/20 10:01:24;;;;;;;46.30;20.08;;;0.60;99.90;;;;;;5046832;28;20171;-75
2024/01/20 10:03:50;;;;;;;48.40;18.83;;;0.60;99.90;;;;;;5034153;28;20073;-75
2024/01/20 10:06:16;;;;;;;42.75;17.88;;;0.60;99.90;;;;;;5027333;28;20112;-74
2024/01/20 10:08:41;;;;;;;48.55;17.92;;;0.60;99.90;;;;;;5034534;28;20346;-74
2024/01/20 10:11:07;;;;;;;46.83;19.75;;;0.60;99.90;;;;;;5036872;28;20063;-74
2024/01/20 10:13:32;;;;;;;54.67;22.48;;;0.70;99.90;;;;;;5039668;28;20049;-75
2024/01/20 10:15:58;;;;;;;42.35;17.92;;;0.80;99.90;;;;;;5042944;28;20033;-74
2024/01/20 10:18:24;;;;;;;41.05;16.58;;;0.80;99.90;;;;;;5051670;28;20041;-74
2024/01/20 10:20:59;;;;;;;48.40;17.42;;;0.90;99.90;;;;;;5053871;28;20369;-74
2024/01/20 10:23:25;;;;;;;43.53;16.83;;;0.90;99.90;;;;;;5039982;28;20171;-73
2024/01/20 10:26:05;;;;;;;41.40;17.40;;;0.80;99.90;;;;;;5046395;28;20114;-74
2024/01/20 10:28:32;;;;;;;43.78;18.15;;;0.80;99.90;;;;;;5052377;28;20110;-75
2024/01/20 10:30:58;;;;;;;41.63;18.40;;;0.80;99.90;;;;;;5046778;28;20512;-73
2024/01/20 10:33:24;;;;;;;47.28;19.70;;;0.70;99.90;;;;;;5039799;28;20028;-74
2024/01/20 10:35:51;;;;;;;49.00;18.05;;;0.80;99.90;;;;;;5056792;28;20031;-74
2024/01/20 10:38:21;;;;;;;46.25;18.00;;;0.80;99.90;;;;;;5045415;28;20033;-73
2024/01/20 10:40:53;;;;;;;47.08;19.25;;;0.90;99.90;;;;;;5051478;28;20025;-74
2024/01/20 10:43:20;;;;;;;48.13;18.25;;;0.90;99.90;;;;;;5047708;28;20052;-75
2024/01/20 10:45:54;;;;;;;46.38;18.98;;;0.90;99.90;;;;;;5049888;28;20088;-75
2024/01/20 10:48:25;;;;;;;44.75;18.38;;;0.80;99.90;;;;;;5033294;28;20026;-74
2024/01/20 10:51:05;;;;;;;39.00;17.63;;;0.80;99.90;;;;;;5052544;28;20396;-75
2024/01/20 10:53:31;;;;;;;44.78;17.13;;;0.90;99.90;;;;;;5060225;28;20564;-73
2024/01/20 10:55:58;;;;;;;38.55;17.88;;;0.80;99.90;;;;;;5041340;28;20119;-74
2024/01/20 10:58:31;;;;;;;39.33;17.30;;;0.80;99.90;;;;;;5048036;28;20031;-74
2024/01/20 11:00:57;;;;;;;41.85;18.77;;;0.80;99.90;;;;;;5052229;28;20021;-74
2024/01/20 11:03:24;;;;;;;42.25;18.33;;;0.80;99.90;;;;;;5052543;28;20040;-74
2024/01/20 11:05:49;;;;;;;37.92;16.75;;;0.90;99.90;;;;;;5037818;28;20547;-74
2024/01/20 11:08:24;;;;;;;49.40;20.05;;;1.00;99.90;;;;;;5055988;28;20080;-74
2024/01/20 11:10:52;;;;;;;45.70;17.33;;;1.10;99.90;;;;;;5033144;28;20047;-74
2024/01/20 11:13:17;;;;;;;37.28;15.70;;;1.20;99.90;;;;;;5039917;28;20446;-74
2024/01/20 11:15:50;;;;;;;40.17;17.83;;;1.30;99.90;;;;;;5044202;28;20057;-75
2024/01/20 11:18:19;;;;;;;43.58;17.95;;;1.30;99.90;;;;;;5033655;28;20025;-74
2024/01/20 11:21:00;;;;;;;41.63;17.92;;;1.30;99.90;;;;;;5033888;28;20028;-74
2024/01/20 11:23:26;;;;;;;42.33;18.63;;;1.30;99.90;;;;;;5038408;28;20116;-75
2024/01/20 11:25:52;;;;;;;41.40;17.58;;;1.30;99.90;;;;;;5033743;28;20033;-74
2024/01/20 11:28:35;;;;;;;40.05;18.83;;;1.20;99.90;;;;;;5038140;28;20473;-74
2024/01/20 11:31:01;;;;;;;40.47;17.48;;;1.20;99.90;;;;;;5032899;28;20020;-75
2024/01/20 11:33:27;;;;;;;38.25;16.92;;;1.10;99.90;;;;;;5038446;28;20038;-74
2024/01/20 11:35:53;;;;;;;38.55;17.60;;;1.00;99.90;;;;;;5036025;28;20116;-72
2024/01/20 11:38:20;;;;;;;42.72;17.80;;;0.90;99.90;;;;;;5036382;28;20024;-74
2024/01/20 11:41:00;;;;;;;37.25;16.83;;;0.90;99.90;;;;;;5034650;28;20035;-74
2024/01/20 11:43:26;;;;;;;39.90;16.85;;;0.80;99.90;;;;;;5027299;28;20496;-74
2024/01/20 11:45:52;;;;;;;42.92;18.58;;;0.90;99.90;;;;;;5034558;28;20560;-74
2024/01/20 11:48:18;;;;;;;40.03;18.02;;;1.00;99.90;;;;;;5033586;28;20132;-73
2024/01/20 11:50:43;;;;;;;36.67;16.23;;;1.00;99.90;;;;;;5036893;28;20108;-75
2024/01/20 11:53:09;;;;;;;44.67;18.83;;;1.00;99.90;;;;;;5034602;28;20100;-74
2024/01/20 11:55:35;;;;;;;41.45;17.27;;;1.20;99.90;;;;;;5033783;28;20040;-74
2024/01/20 11:58:03;;;;;;;44.10;18.23;;;1.20;99.90;;;;;;5038629;28;20138;-74
2024/01/20 12:00:28;;;;;;;44.70;18.73;;;1.30;99.90;;;;;;5039871;28;20485;-73
2024/01/20 12:02:54;;;;;;;40.03;17.98;;;1.30;99.90;;;;;;5034885;28;20033;-74
2024/01/20 12:05:20;;;;;;;36.72;16.15;;;1.30;99.90;;;;;;5039801;28;20033;-74
2024/01/20 12:07:46;;;;;;;35.60;15.65;;;1.40;99.90;;;;;;5038496;28;20131;-75
2024/01/20 12:10:15;;;;;;;36.20;16.15;;;1.50;99.90;;;;;;5042238;28;20136;-73
2024/01/20 12:12:40;;;;;;;37.80;16.83;;;1.50;99.90;;;;;;5036943;28;20571;-73
2024/01/20 12:15:07;;;;;;;36.92;15.93;;;1.50;99.90;;;;;;5036229;28;20044;-73
2024/01/20 12:17:39;;;;;;;35.10;14.82;;;1.60;99.90;;;;;;5038622;28;20096;-74
2024/01/20 12:20:05;;;;;;;34.25;15.02;;;1.60;99.90;;;;;;5043406;28;20048;-74
2024/01/20 12:22:32;;;;;;;32.13;15.38;;;1.60;99.90;;;;;;5042607;28;20397;-74
2024/01/20 12:25:00;;;;;;;30.73;14.68;;;1.50;99.90;;;;;;5038558;28;20021;-74